Time;durP1;ratioP1;P1;durP2;ratioP2;P2;SDS_P1;SDS_P2;PMS_P1;PMS_P2;Temp;Humidity;BMP_temperature;BMP_pressure;BME280_temperature;BME280_humidity;BME280_pressure;Samples;Min_cycle;Max_cycle;Signal;HPM_P1;HPM_P2
2022/05/07 00:01:25;;;;;;;56.83;27.33;;;;;;;9.34;52.82;102243.72;4958475;28;20041;-73
2022/05/07 00:03:51;;;;;;;53.42;27.38;;;;;;;9.22;53.27;102251.72;4960799;28;20094;-74
2022/05/07 00:06:16;;;;;;;50.50;27.40;;;;;;;9.12;53.47;102248.34;4961789;28;20068;-72
2022/05/07 00:08:42;;;;;;;51.45;28.65;;;;;;;9.05;53.88;102246.69;4962642;28;20042;-72
2022/05/07 00:11:07;;;;;;;52.03;29.02;;;;;;;9.11;53.83;102246.63;4958457;28;20038;-72
2022/05/07 00:13:33;;;;;;;57.95;27.77;;;;;;;9.16;53.71;102244.81;4962257;28;20047;-67
2022/05/07 00:18:42;;;;;;;59.85;27.65;;;;;;;9.04;53.96;102252.81;4961782;28;20083;-70
2022/05/07 00:21:08;;;;;;;55.17;28.77;;;;;;;9.00;54.03;102251.97;4962898;28;20035;-75
2022/05/07 00:23:34;;;;;;;62.70;29.20;;;;;;;8.95;54.01;102254.63;4974951;28;20044;-73
2022/05/07 00:25:59;;;;;;;58.42;29.52;;;;;;;8.90;54.20;102243.38;4957331;28;20488;-74
2022/05/07 00:28:25;;;;;;;65.15;32.00;;;;;;;8.84;54.35;102238.22;4959626;28;20050;-74
2022/05/07 00:30:50;;;;;;;57.83;29.80;;;;;;;8.82;54.69;102249.56;4960742;28;20030;-74
2022/05/07 00:33:16;;;;;;;59.67;29.80;;;;;;;8.80;54.70;102246.97;4954793;28;20300;-74
2022/05/07 00:35:41;;;;;;;65.57;31.10;;;;;;;8.79;54.76;102240.03;4973542;28;20067;-73
2022/05/07 00:38:07;;;;;;;60.20;29.60;;;;;;;8.74;54.73;102244.44;4962631;28;20385;-75
2022/05/07 00:40:32;;;;;;;57.72;30.20;;;;;;;8.67;54.59;102241.00;4961242;28;20026;-75
2022/05/07 00:42:58;;;;;;;51.85;28.73;;;;;;;8.65;54.55;102247.09;4973057;28;20054;-74
2022/05/07 00:45:24;;;;;;;55.40;28.92;;;;;;;8.68;54.43;102247.06;4957772;28;20046;-75
2022/05/07 00:47:50;;;;;;;53.08;28.40;;;;;;;8.69;54.59;102239.22;4974200;28;20512;-75
2022/05/07 00:53:00;;;;;;;54.33;26.85;;;;;;;8.85;54.61;102232.16;4958461;28;21651;-76
2022/05/07 00:55:29;;;;;;;51.78;27.35;;;;;;;8.86;54.63;102231.25;4962609;28;20030;-74
2022/05/07 00:57:55;;;;;;;49.10;27.40;;;;;;;8.94;54.59;102233.78;4968596;28;20066;-76
2022/05/07 01:00:21;;;;;;;46.30;23.30;;;;;;;8.96;54.38;102235.50;4962999;28;20166;-74
2022/05/07 01:02:47;;;;;;;43.55;23.27;;;;;;;9.08;54.42;102228.41;4953028;28;20057;-73
2022/05/07 01:05:12;;;;;;;44.75;23.50;;;;;;;9.14;54.37;102229.22;4961644;28;20110;-76
2022/05/07 01:07:38;;;;;;;47.20;26.95;;;;;;;9.19;53.85;102236.97;4962241;28;20360;-76
2022/05/07 01:10:05;;;;;;;51.80;26.25;;;;;;;9.22;54.09;102234.31;4975728;28;20062;-74
2022/05/07 01:12:35;;;;;;;52.55;26.65;;;;;;;9.32;53.99;102238.53;4945332;28;20045;-77
2022/05/07 01:15:01;;;;;;;42.33;23.55;;;;;;;9.46;53.92;102235.75;4960279;28;20104;-74
2022/05/07 01:17:32;;;;;;;51.58;26.25;;;;;;;9.50;53.33;102239.16;4957511;28;20081;-74
2022/05/07 01:20:00;;;;;;;43.92;25.00;;;;;;;9.59;53.30;102236.44;4954650;28;20038;-74
2022/05/07 01:22:29;;;;;;;45.22;25.60;;;;;;;9.68;53.17;102238.03;4974116;28;20043;-74
2022/05/07 01:24:55;;;;;;;48.08;25.48;;;;;;;9.80;53.09;102235.28;4960202;28;20133;-72
2022/05/07 01:27:22;;;;;;;55.33;27.92;;;;;;;9.92;53.28;102231.63;4961665;28;20203;-73
2022/05/07 01:29:48;;;;;;;52.60;28.80;;;;;;;9.91;52.74;102229.91;4959442;28;24231;-72
2022/05/07 01:32:13;;;;;;;50.38;28.27;;;;;;;9.72;52.76;102229.28;4959027;28;20312;-72
2022/05/07 01:34:40;;;;;;;52.83;27.90;;;;;;;9.71;53.25;102231.03;4975449;28;20400;-72
2022/05/07 01:37:05;;;;;;;50.47;27.92;;;;;;;9.68;53.20;102233.69;4956610;28;20039;-73
2022/05/07 01:39:31;;;;;;;52.90;27.75;;;;;;;9.71;53.26;102223.19;4973379;28;20408;-73
2022/05/07 01:41:59;;;;;;;47.40;27.95;;;;;;;9.84;53.00;102220.44;4954216;28;20026;-73
2022/05/07 01:44:25;;;;;;;54.92;29.40;;;;;;;9.80;53.00;102223.09;4961914;28;20035;-73
2022/05/07 01:49:35;;;;;;;57.08;28.83;;;;;;;9.71;53.29;102228.41;4959925;28;20038;-69
2022/05/07 01:52:02;;;;;;;54.28;28.45;;;;;;;9.68;53.31;102224.97;4960881;28;20053;-69
2022/05/07 01:54:28;;;;;;;48.45;27.55;;;;;;;9.83;53.07;102221.31;4964228;28;20342;-69
2022/05/07 01:56:54;;;;;;;49.10;26.55;;;;;;;9.93;52.98;102222.91;4959146;28;20038;-69
2022/05/07 01:59:19;;;;;;;59.13;30.73;;;;;;;9.78;52.82;102224.81;4961604;28;20058;-70
2022/05/07 02:01:46;;;;;;;52.55;27.58;;;;;;;9.78;52.90;102224.81;4943047;28;20039;-69
2022/05/07 02:04:12;;;;;;;51.70;28.30;;;;;;;9.77;52.96;102217.91;4963652;28;20644;-72
2022/05/07 02:06:37;;;;;;;53.13;27.60;;;;;;;9.71;53.28;102225.81;4965840;28;20050;-75
2022/05/07 02:09:03;;;;;;;45.25;27.38;;;;;;;9.76;53.28;102225.75;4968484;28;20062;-75
2022/05/07 02:11:32;;;;;;;57.70;29.55;;;;;;;9.87;53.45;102223.00;4968484;28;20031;-70
2022/05/07 02:13:58;;;;;;;54.40;28.20;;;;;;;9.84;52.88;102217.84;4964452;28;20141;-71
2022/05/07 02:16:24;;;;;;;49.55;28.40;;;;;;;9.80;53.22;102222.22;4981416;28;20563;-72
2022/05/07 02:18:49;;;;;;;53.83;29.80;;;;;;;9.81;53.24;102221.34;4961013;28;20504;-71
2022/05/07 02:21:15;;;;;;;57.97;29.52;;;;;;;9.74;53.15;102223.13;4958258;28;20038;-74
2022/05/07 02:23:40;;;;;;;59.75;31.15;;;;;;;9.71;53.56;102217.97;4960483;28;20110;-74
2022/05/07 02:26:07;;;;;;;54.03;30.42;;;;;;;9.77;53.64;102219.66;4976754;28;20050;-74
2022/05/07 02:28:32;;;;;;;56.55;30.15;;;;;;;9.74;53.39;102217.91;4959456;28;20073;-74
2022/05/07 02:30:58;;;;;;;54.63;30.50;;;;;;;9.73;53.33;102216.22;4957922;28;20400;-74
2022/05/07 02:33:25;;;;;;;58.35;29.15;;;;;;;9.66;53.28;102205.91;4980203;28;20042;-75
2022/05/07 02:35:51;;;;;;;54.55;29.45;;;;;;;9.64;53.76;102211.13;4975479;28;20444;-75
2022/05/07 02:38:16;;;;;;;59.65;29.90;;;;;;;9.62;53.79;102199.00;4959938;28;20046;-74
2022/05/07 02:43:34;;;;;;;57.22;31.67;;;;;;;9.66;54.27;102203.28;4963949;28;20046;-74
2022/05/07 02:46:07;;;;;;;61.10;31.98;;;;;;;9.74;53.62;102201.41;4978723;28;20092;-74
2022/05/07 02:48:36;;;;;;;58.70;31.52;;;;;;;9.76;53.91;102204.84;4981931;28;20053;-74
2022/05/07 02:51:04;;;;;;;58.45;30.17;;;;;;;9.76;53.98;102200.47;4960646;28;20118;-74
2022/05/07 02:53:30;;;;;;;59.42;31.08;;;;;;;9.73;54.11;102204.91;4964453;28;20138;-75
2022/05/07 02:55:56;;;;;;;52.03;29.70;;;;;;;9.77;54.01;102207.44;4971044;28;20110;-75
2022/05/07 02:58:22;;;;;;;54.60;30.65;;;;;;;9.85;54.20;102203.88;4975857;28;20400;-75
2022/05/07 03:00:49;;;;;;;53.65;29.45;;;;;;;9.93;53.76;102208.09;4950675;28;20026;-75
2022/05/07 03:03:15;;;;;;;55.00;31.70;;;;;;;9.98;53.59;102205.41;4975365;28;20511;-75
2022/05/07 03:05:41;;;;;;;60.30;31.25;;;;;;;10.00;53.95;102214.09;4958527;28;20133;-75
2022/05/07 03:08:06;;;;;;;62.33;32.88;;;;;;;10.04;53.51;102212.31;4974980;28;20081;-75
2022/05/07 03:10:35;;;;;;;65.72;33.50;;;;;;;9.98;53.59;102213.25;4978423;28;20038;-76
2022/05/07 03:13:01;;;;;;;71.13;34.67;;;;;;;9.96;53.88;102212.41;4958780;28;20042;-67
2022/05/07 03:15:27;;;;;;;60.47;32.80;;;;;;;9.99;53.87;102213.22;4964515;28;20035;-73
2022/05/07 03:17:52;;;;;;;66.63;34.53;;;;;;;9.85;53.85;102209.09;4956076;28;20047;-72
2022/05/07 03:20:18;;;;;;;68.70;35.05;;;;;;;9.76;53.84;102210.94;4964335;28;20027;-72
2022/05/07 03:22:46;;;;;;;66.45;34.80;;;;;;;9.70;54.21;102198.00;4962612;28;20046;-71
2022/05/07 03:25:12;;;;;;;72.53;35.92;;;;;;;9.73;54.35;102204.91;4963422;28;20130;-72
2022/05/07 03:27:39;;;;;;;62.53;32.85;;;;;;;9.85;54.41;102206.50;4943203;28;20049;-73
2022/05/07 03:30:10;;;;;;;55.73;31.10;;;;;;;9.97;54.20;102208.94;4978433;28;20061;-72
2022/05/07 03:32:48;;;;;;;54.92;33.08;;;;;;;10.07;53.73;102205.25;4961724;28;20512;-72
2022/05/07 03:35:14;;;;;;;57.15;33.28;;;;;;;10.08;54.01;102217.44;4964296;28;20046;-72
2022/05/07 03:37:40;;;;;;;61.17;33.90;;;;;;;10.01;53.67;102216.69;4974134;28;20534;-72
2022/05/07 03:40:08;;;;;;;65.50;34.42;;;;;;;9.99;53.95;102220.19;4958825;28;20035;-70
2022/05/07 03:42:33;;;;;;;63.95;34.80;;;;;;;9.99;54.16;102220.19;4973914;28;20448;-70
2022/05/07 03:45:00;;;;;;;71.25;34.80;;;;;;;10.02;54.26;102217.53;4957709;28;20034;-70
2022/05/07 03:47:29;;;;;;;73.53;36.53;;;;;;;10.04;54.03;102210.53;4964246;28;20285;-70
2022/05/07 03:49:55;;;;;;;67.20;33.63;;;;;;;9.99;53.82;102217.56;4958404;28;20495;-70
2022/05/07 03:55:09;;;;;;;56.85;31.83;;;;;;;10.02;54.42;102214.94;5031314;28;21191;-70
2022/05/07 03:57:37;;;;;;;63.00;31.35;;;;;;;10.12;54.08;102213.00;5032125;28;20353;-71
2022/05/07 04:00:03;;;;;;;72.57;37.75;;;;;;;10.03;53.89;102208.81;5012657;28;20115;-69
2022/05/07 04:02:40;;;;;;;71.53;35.55;;;;;;;9.93;54.07;102209.84;4997043;28;20049;-69
2022/05/07 04:05:09;;;;;;;63.38;32.03;;;;;;;9.91;54.55;102220.31;4996022;28;20033;-69
2022/05/07 04:07:35;;;;;;;65.10;34.95;;;;;;;9.94;54.01;102220.25;4997201;28;20041;-68
2022/05/07 04:10:06;;;;;;;;;;;;;;;10.13;54.06;102223.44;4996492;28;20034;-69
2022/05/07 04:12:35;;;;;;;61.50;34.65;;;;;;;10.10;53.98;102212.19;4996999;28;19944;-69
2022/05/07 04:15:02;;;;;;;63.42;32.53;;;;;;;10.16;54.16;102220.78;4988007;28;20041;-72
2022/05/07 04:17:30;;;;;;;65.80;32.35;;;;;;;10.24;54.00;102223.28;5011912;28;20258;-72
2022/05/07 04:19:58;;;;;;;64.30;33.97;;;;;;;10.33;53.85;102224.88;5010105;28;20038;-70
2022/05/07 04:22:25;;;;;;;61.20;33.38;;;;;;;10.35;53.92;102225.72;4990739;28;20076;-70
2022/05/07 04:24:51;;;;;;;68.40;37.20;;;;;;;10.33;53.51;102224.88;4979270;28;20451;-69
2022/05/07 04:27:17;;;;;;;64.55;33.83;;;;;;;10.41;53.41;102230.81;4997167;28;20048;-69
2022/05/07 04:29:50;;;;;;;69.60;36.60;;;;;;;10.53;53.63;102225.38;4977995;28;20146;-70
2022/05/07 04:32:19;;;;;;;73.38;37.28;;;;;;;10.49;53.77;102228.94;4977552;28;20038;-68
2022/05/07 04:34:50;;;;;;;72.15;35.53;;;;;;;10.54;54.05;102227.06;4993632;28;20555;-70
2022/05/07 04:37:16;;;;;;;67.38;34.20;;;;;;;10.68;53.66;102224.19;5012957;28;20033;-69
2022/05/07 04:39:42;;;;;;;56.63;31.52;;;;;;;10.86;53.52;102233.50;4995290;28;20037;-69
2022/05/07 04:42:09;;;;;;;67.35;37.60;;;;;;;10.97;53.22;102226.31;5009785;28;20041;-69
2022/05/07 04:44:44;;;;;;;62.33;34.67;;;;;;;11.10;52.95;102229.50;4979601;28;20458;-69
2022/05/07 04:47:38;;;;;;;63.20;35.05;;;;;;;11.12;52.88;102229.50;4993270;28;20538;-69
2022/05/07 04:50:09;;;;;;;65.22;34.67;;;;;;;11.24;52.95;102237.06;4994550;28;20119;-72
2022/05/07 04:52:42;;;;;;;67.55;33.80;;;;;;;11.37;52.74;102240.28;4993165;28;20117;-72
2022/05/07 04:55:08;;;;;;;71.65;36.60;;;;;;;11.44;52.58;102240.16;4972529;28;20584;-72
2022/05/07 04:57:33;;;;;;;76.05;36.00;;;;;;;11.42;52.17;102244.56;4982369;28;20220;-72
2022/05/07 05:00:05;;;;;;;61.92;33.25;;;;;;;11.48;52.79;102245.31;4973680;28;20025;-73
2022/05/07 05:02:53;;;;;;;72.78;34.75;;;;;;;11.54;52.01;102247.78;5006898;28;20054;-70
2022/05/07 05:05:25;;;;;;;69.63;36.15;;;;;;;11.56;52.14;102248.63;4995923;28;20514;-70
2022/05/07 05:07:57;;;;;;;67.90;34.47;;;;;;;11.48;52.27;102254.00;5009251;28;20098;-70
2022/05/07 05:10:24;;;;;;;72.65;36.20;;;;;;;11.51;52.77;102253.06;4995185;28;20037;-70
2022/05/07 05:12:50;;;;;;;71.72;36.28;;;;;;;11.51;52.49;102258.31;4988009;28;20910;-70
2022/05/07 05:15:16;;;;;;;68.95;34.90;;;;;;;11.45;52.29;102254.94;4995323;28;20041;-67
2022/05/07 05:17:54;;;;;;;77.65;35.80;;;;;;;11.37;52.18;102262.09;4993741;28;20056;-68
2022/05/07 05:20:21;;;;;;;70.50;36.17;;;;;;;11.48;52.88;102261.00;4975551;28;20125;-70
2022/05/07 05:22:55;;;;;;;67.57;35.65;;;;;;;11.46;52.15;102267.16;4992391;28;20072;-71
2022/05/07 05:25:28;;;;;;;70.97;35.80;;;;;;;11.50;52.75;102267.06;5011760;28;20992;-71
2022/05/07 05:27:55;;;;;;;65.18;35.28;;;;;;;11.62;52.38;102277.28;4992589;28;20073;-69
2022/05/07 05:30:21;;;;;;;76.55;37.05;;;;;;;11.78;52.77;102268.22;4990264;28;20036;-68
2022/05/07 05:32:50;;;;;;;76.40;37.00;;;;;;;11.85;52.19;102274.19;5006566;28;20259;-71
2022/05/07 05:35:16;;;;;;;70.53;35.67;;;;;;;11.95;52.42;102272.19;4999000;28;20642;-70
2022/05/07 05:37:47;;;;;;;73.32;37.55;;;;;;;11.86;52.50;102271.50;4980978;28;20053;-70
2022/05/07 05:40:13;;;;;;;66.70;34.78;;;;;;;11.71;52.52;102282.31;4994566;28;20038;-70
2022/05/07 05:42:46;;;;;;;71.95;36.22;;;;;;;11.45;53.60;102286.34;4994492;28;20053;-70
2022/05/07 05:45:12;;;;;;;68.07;33.90;;;;;;;11.66;53.64;102289.41;5011749;28;20021;-71
2022/05/07 05:47:41;;;;;;;71.80;35.78;;;;;;;11.59;53.40;102285.19;5009542;28;20045;-71
2022/05/07 05:50:08;;;;;;;75.97;38.83;;;;;;;11.50;53.35;102278.41;4988305;28;20487;-70
2022/05/07 05:52:39;;;;;;;69.75;34.15;;;;;;;11.52;53.69;102288.84;4987755;28;20793;-72
2022/05/07 05:55:06;;;;;;;63.22;34.80;;;;;;;11.55;53.87;102291.41;4974705;28;20108;-72
2022/05/07 05:57:32;;;;;;;59.33;32.67;;;;;;;11.65;53.75;102298.16;4997549;28;20095;-70
2022/05/07 05:59:57;;;;;;;68.38;35.85;;;;;;;11.51;54.16;102295.84;4993535;28;20038;-69
2022/05/07 06:02:24;;;;;;;74.60;35.97;;;;;;;11.60;53.63;102294.81;5009997;28;20481;-68
2022/05/07 06:04:59;;;;;;;69.97;34.28;;;;;;;11.65;54.12;102290.31;4993187;28;20712;-69
2022/05/07 06:07:27;;;;;;;72.00;36.53;;;;;;;11.72;53.85;102291.03;4989350;28;20061;-69
2022/05/07 06:09:57;;;;;;;76.10;38.75;;;;;;;11.75;53.53;102289.19;5009217;28;20458;-69
2022/05/07 06:12:24;;;;;;;80.30;38.63;;;;;;;11.90;53.53;102289.78;4993621;28;20462;-68
2022/05/07 06:14:54;;;;;;;71.88;37.03;;;;;;;12.07;53.29;102296.38;5008981;28;20033;-69
2022/05/07 06:17:21;;;;;;;69.87;36.57;;;;;;;12.22;53.33;102295.16;5010450;28;20041;-68
2022/05/07 06:19:50;;;;;;;82.45;36.65;;;;;;;12.37;53.77;102293.88;4994722;28;20675;-71
2022/05/07 06:22:16;;;;;;;67.60;35.35;;;;;;;12.54;53.27;102290.00;4992961;28;20046;-70
2022/05/07 06:28:04;;;;;;;73.90;34.65;;;;;;;12.67;51.88;102296.66;4992884;28;20044;-70
2022/05/07 06:30:40;;;;;;;71.43;36.53;;;;;;;13.03;52.04;102297.44;5009821;28;20092;-70
2022/05/07 06:33:09;;;;;;;62.42;35.47;;;;;;;13.15;51.24;102300.63;4978713;28;21256;-70
2022/05/07 06:35:44;;;;;;;65.60;34.92;;;;;;;13.18;51.77;102303.16;5008254;28;20100;-69
2022/05/07 06:38:16;;;;;;;67.70;36.03;;;;;;;13.03;50.78;102305.31;4974352;28;20050;-67
2022/05/07 06:40:46;;;;;;;64.25;35.50;;;;;;;12.86;51.40;102305.75;4997692;28;20561;-69
2022/05/07 06:43:13;;;;;;;67.45;35.38;;;;;;;12.83;51.33;102302.38;4994949;28;20056;-69
2022/05/07 06:46:03;;;;;;;65.25;34.75;;;;;;;12.89;52.26;102304.81;4997554;28;20038;-69
2022/05/07 06:48:30;;;;;;;66.50;35.50;;;;;;;12.98;51.38;102306.31;5014102;28;20038;-69
2022/05/07 06:51:03;;;;;;;69.70;35.40;;;;;;;13.26;51.56;102316.94;4997264;28;20174;-69
2022/05/07 06:53:29;;;;;;;67.63;35.38;;;;;;;13.52;50.90;102314.41;4998414;28;20088;-68
2022/05/07 06:56:03;;;;;;;61.88;33.75;;;;;;;13.56;50.11;102320.41;4995743;28;20034;-69
2022/05/07 06:58:32;;;;;;;68.35;35.05;;;;;;;13.74;50.75;102329.53;5015213;28;20127;-68
2022/05/07 07:01:00;;;;;;;62.17;33.38;;;;;;;13.86;49.98;102329.19;4994154;28;20033;-68
2022/05/07 07:03:26;;;;;;;66.43;35.13;;;;;;;13.71;50.08;102327.88;4997869;28;20038;-68
2022/05/07 07:05:53;;;;;;;58.60;31.83;;;;;;;13.69;49.90;102331.44;4980333;28;20516;-68
2022/05/07 07:08:19;;;;;;;62.50;33.55;;;;;;;13.35;50.14;102326.31;4998410;28;20410;-69
2022/05/07 07:10:45;;;;;;;63.28;33.42;;;;;;;13.49;49.97;102335.50;4998409;28;20033;-68
2022/05/07 07:13:11;;;;;;;67.22;33.78;;;;;;;13.47;50.02;102332.06;4977652;28;20046;-76
2022/05/07 07:15:39;;;;;;;70.10;33.55;;;;;;;13.54;49.99;102335.38;4983275;28;20034;-72
2022/05/07 07:18:11;;;;;;;68.20;33.70;;;;;;;13.57;49.99;102331.84;4998217;28;20033;-71
2022/05/07 07:20:39;;;;;;;65.95;35.83;;;;;;;13.64;49.89;102333.38;4999050;28;20038;-69
2022/05/07 07:23:05;;;;;;;74.75;36.60;;;;;;;13.56;50.59;102325.66;4997709;28;20045;-69
2022/05/07 07:25:31;;;;;;;66.85;33.85;;;;;;;13.63;49.78;102326.38;4999266;28;20036;-68
2022/05/07 07:27:58;;;;;;;60.67;30.38;;;;;;;13.72;49.68;102328.75;5011121;28;20352;-71
2022/05/07 07:30:23;;;;;;;60.72;33.17;;;;;;;13.92;49.25;102333.41;4999484;28;20083;-71
2022/05/07 07:32:49;;;;;;;63.40;33.85;;;;;;;13.92;48.49;102334.25;4996671;28;20046;-69
2022/05/07 07:35:14;;;;;;;68.00;33.50;;;;;;;14.01;48.58;102332.22;4998591;28;20049;-72
2022/05/07 07:37:40;;;;;;;62.85;32.70;;;;;;;13.84;49.06;102331.00;4998786;28;20514;-72
2022/05/07 07:40:05;;;;;;;63.17;32.83;;;;;;;13.75;49.64;102333.06;4997769;28;20042;-72
2022/05/07 07:42:31;;;;;;;58.25;31.63;;;;;;;13.80;48.61;102334.63;4996543;28;20128;-72
2022/05/07 07:50:30;;;;;;;57.80;31.75;;;;;;;13.82;48.74;102343.31;4998002;28;20036;-73
2022/05/07 07:52:58;;;;;;;56.63;31.35;;;;;;;13.88;48.82;102340.50;5008665;28;20148;-73
2022/05/07 07:55:24;;;;;;;70.90;30.98;;;;;;;13.95;48.58;102343.81;4999763;28;20032;-73
2022/05/07 07:57:59;;;;;;;64.03;30.40;;;;;;;13.94;49.07;102347.31;4993795;28;20046;-74
2022/05/07 08:00:26;;;;;;;64.75;32.72;;;;;;;14.05;47.79;102347.00;4998930;28;20463;-74
2022/05/07 08:02:55;;;;;;;62.40;32.08;;;;;;;14.07;48.47;102347.81;5009823;28;20569;-73
2022/05/07 08:05:30;;;;;;;52.35;29.30;;;;;;;14.05;48.83;102355.75;5014263;28;20050;-73
2022/05/07 08:13:25;;;;;;;59.25;31.13;;;;;;;14.41;47.87;102352.03;4996094;28;20107;-73
2022/05/07 08:15:50;;;;;;;51.55;26.85;;;;;;;14.29;47.62;102354.09;4994822;28;20046;-74
2022/05/07 08:18:16;;;;;;;49.17;23.98;;;;;;;14.54;47.37;102363.84;4995721;28;20128;-73
2022/05/07 08:20:43;;;;;;;54.85;27.15;;;;;;;14.58;46.62;102362.00;4995719;28;20030;-73
2022/05/07 08:23:10;;;;;;;53.20;26.48;;;;;;;14.72;46.25;102358.00;4991273;28;20550;-73
2022/05/07 08:25:36;;;;;;;51.63;27.42;;;;;;;14.75;46.61;102368.41;4994894;28;20037;-73
2022/05/07 08:28:04;;;;;;;53.75;28.30;;;;;;;14.86;45.64;102359.31;4970645;28;20376;-73
2022/05/07 08:30:30;;;;;;;48.58;26.02;;;;;;;14.80;45.17;102364.78;5009404;28;20132;-73
2022/05/07 08:32:55;;;;;;;44.78;21.85;;;;;;;14.79;44.99;102368.28;4993432;28;20038;-73
2022/05/07 08:35:21;;;;;;;41.55;21.52;;;;;;;14.84;44.58;102369.03;4996627;28;20045;-72
2022/05/07 08:37:47;;;;;;;33.63;18.83;;;;;;;14.73;44.35;102370.22;4970503;28;20085;-74
2022/05/07 08:40:17;;;;;;;44.60;24.13;;;;;;;14.80;43.84;102370.03;4994144;28;20057;-73
2022/05/07 08:42:44;;;;;;;44.33;23.85;;;;;;;14.88;44.29;102381.13;4994113;28;20061;-73
2022/05/07 08:45:12;;;;;;;33.83;18.27;;;;;;;14.80;43.44;102372.66;4994833;28;20922;-73
2022/05/07 08:47:38;;;;;;;35.08;16.40;;;;;;;14.69;43.20;102389.66;4996243;28;20046;-75
2022/05/07 08:50:07;;;;;;;34.08;16.45;;;;;;;14.62;43.04;102389.94;4994364;28;20053;-72
2022/05/07 08:52:34;;;;;;;37.72;18.65;;;;;;;14.34;44.28;102388.16;4995549;28;20418;-72
2022/05/07 08:55:00;;;;;;;35.20;18.77;;;;;;;14.08;44.76;102396.88;4994009;28;20037;-72
2022/05/07 08:57:29;;;;;;;31.67;18.17;;;;;;;13.91;45.27;102394.75;4995562;28;20414;-73
2022/05/07 08:59:55;;;;;;;37.20;19.08;;;;;;;13.79;45.97;102400.38;4992793;28;20556;-72
2022/05/07 09:02:20;;;;;;;32.13;17.50;;;;;;;13.67;45.67;102398.94;4994178;28;20054;-73
2022/05/07 09:04:58;;;;;;;38.15;18.90;;;;;;;13.43;46.98;102393.47;5010435;28;20576;-72
2022/05/07 09:07:24;;;;;;;28.98;15.68;;;;;;;13.03;47.26;102394.56;4995392;28;20048;-73
2022/05/07 09:09:51;;;;;;;37.10;18.10;;;;;;;13.28;46.76;102399.16;4990623;28;20042;-74
2022/05/07 09:12:22;;;;;;;31.13;17.75;;;;;;;13.03;48.69;102409.44;4988380;28;20133;-73
2022/05/07 09:14:48;;;;;;;;;;;;;;;12.72;49.56;102398.88;5008299;28;20064;-74
2022/05/07 09:17:18;;;;;;;34.47;17.05;;;;;;;12.27;51.24;102403.38;4993645;28;19976;-74
2022/05/07 09:19:43;;;;;;;35.00;17.20;;;;;;;12.05;51.98;102402.97;5005771;28;20641;-73
2022/05/07 09:22:10;;;;;;;37.88;18.25;;;;;;;12.08;52.61;102404.66;4993526;28;20049;-73
2022/05/07 09:24:38;;;;;;;29.10;16.83;;;;;;;11.64;54.07;102404.69;4993939;28;20766;-72
2022/05/07 09:27:05;;;;;;;26.65;14.60;;;;;;;11.62;53.75;102400.34;4991646;28;20046;-73
2022/05/07 09:29:32;;;;;;;22.67;12.50;;;;;;;11.70;53.24;102401.06;4988212;28;20029;-72
2022/05/07 09:32:15;;;;;;;22.08;11.85;;;;;;;11.60;53.69;102404.78;4990813;28;20038;-73
2022/05/07 09:37:36;;;;;;;24.25;14.07;;;;;;;11.39;54.85;102401.66;4994538;28;20129;-71
2022/05/07 09:40:12;;;;;;;23.48;15.30;;;;;;;11.84;53.81;102393.84;4992877;28;20033;-71
2022/05/07 09:42:39;;;;;;;29.38;16.73;;;;;;;12.04;52.66;102400.38;4994249;28;20042;-73
2022/05/07 09:45:06;;;;;;;27.83;16.52;;;;;;;11.81;52.91;102399.13;4992668;28;20033;-72
2022/05/07 09:47:32;;;;;;;23.63;13.23;;;;;;;11.96;53.03;102402.34;5009802;28;20042;-71
2022/05/07 09:58:16;;;;;;;17.95;10.82;;;;;;;12.55;49.53;102396.59;4993708;28;20503;-72
2022/05/07 10:01:13;;;;;;;25.73;13.27;;;;;;;12.62;49.42;102391.16;4993321;28;20059;-71
2022/05/07 10:03:38;;;;;;;20.80;11.65;;;;;;;12.73;49.43;102397.94;4992041;28;20053;-73
2022/05/07 10:06:34;;;;;;;19.92;12.30;;;;;;;12.59;49.67;102404.38;4992767;28;20167;-71
2022/05/07 10:09:25;;;;;;;20.63;13.57;;;;;;;12.58;50.03;102407.00;4990493;28;20042;-73
2022/05/07 10:11:56;;;;;;;27.02;14.60;;;;;;;12.62;50.40;102406.91;4990775;28;20045;-73
2022/05/07 10:14:30;;;;;;;26.42;14.77;;;;;;;12.55;50.35;102402.72;4994609;28;20261;-71
2022/05/07 10:17:21;;;;;;;29.85;15.77;;;;;;;12.46;50.16;102413.41;5010944;28;20041;-72
2022/05/07 10:19:49;;;;;;;32.15;15.75;;;;;;;12.43;50.91;102413.50;4997571;28;20042;-73
2022/05/07 10:22:26;;;;;;;26.83;15.57;;;;;;;12.42;50.87;102414.38;4996646;28;20053;-71
2022/05/07 10:25:14;;;;;;;28.33;13.60;;;;;;;12.43;50.98;102414.34;4990691;28;20049;-70
2022/05/07 10:27:44;;;;;;;23.55;14.73;;;;;;;12.32;51.72;102405.88;4994587;28;20054;-70
2022/05/07 10:30:16;;;;;;;27.40;16.73;;;;;;;12.34;52.41;102406.72;4996603;28;20042;-70
2022/05/07 10:32:48;;;;;;;29.50;15.48;;;;;;;12.44;52.00;102409.97;5012662;28;20048;-71
2022/05/07 10:35:14;;;;;;;26.77;14.20;;;;;;;12.58;52.11;102407.91;4997326;28;20041;-70
2022/05/07 10:37:43;;;;;;;27.35;16.10;;;;;;;12.67;51.88;102407.66;5012519;28;20537;-70
2022/05/07 10:40:10;;;;;;;27.98;16.42;;;;;;;12.72;52.00;102409.34;4992517;28;20045;-71
2022/05/07 10:42:39;;;;;;;24.77;14.88;;;;;;;12.52;52.24;102410.66;5012554;28;20050;-70
2022/05/07 10:45:22;;;;;;;30.48;15.23;;;;;;;12.56;51.82;102404.44;4998054;28;20041;-70
2022/05/07 10:47:57;;;;;;;26.15;14.40;;;;;;;12.61;52.23;102418.31;4997564;28;20598;-70
2022/05/07 10:50:23;;;;;;;30.10;14.27;;;;;;;12.88;52.00;102413.31;5012969;28;20038;-70
2022/05/07 10:52:57;;;;;;;28.77;13.73;;;;;;;12.78;52.30;102407.44;4991692;28;20058;-70
2022/05/07 10:55:27;;;;;;;25.50;13.82;;;;;;;12.84;52.25;102412.50;4998519;28;20561;-70
2022/05/07 10:57:55;;;;;;;26.05;13.65;;;;;;;12.88;51.95;102405.44;4994770;28;20068;-70
2022/05/07 11:00:23;;;;;;;24.75;12.88;;;;;;;12.96;52.40;102414.00;4998335;28;20132;-70
2022/05/07 11:02:50;;;;;;;25.23;13.60;;;;;;;12.93;52.24;102413.19;4999097;28;20187;-71
2022/05/07 11:05:16;;;;;;;33.45;13.75;;;;;;;13.05;52.47;102418.13;4999736;28;20042;-70
2022/05/07 11:07:43;;;;;;;28.40;14.40;;;;;;;13.22;52.02;102409.81;4999059;28;20495;-70
2022/05/07 11:10:10;;;;;;;23.35;14.25;;;;;;;13.43;51.21;102409.22;4997443;28;20033;-72
2022/05/07 11:12:36;;;;;;;22.15;12.93;;;;;;;13.41;51.11;102416.28;5000414;28;20072;-70
2022/05/07 11:15:07;;;;;;;20.00;12.95;;;;;;;13.53;50.77;102415.94;4999313;28;20034;-71
2022/05/07 11:17:35;;;;;;;19.63;10.15;;;;;;;13.56;51.08;102411.50;4999260;28;20026;-71
2022/05/07 11:20:01;;;;;;;19.27;11.20;;;;;;;14.01;49.88;102424.22;4999765;28;21418;-70
2022/05/07 11:22:30;;;;;;;18.27;9.90;;;;;;;14.35;49.44;102417.03;5014150;28;20072;-70
2022/05/07 11:25:03;;;;;;;23.38;9.80;;;;;;;;;;4997395;28;20102;-70
2022/05/07 11:27:33;;;;;;;16.05;8.98;;;;;;;14.50;47.88;102425.38;4999001;28;20564;-70
2022/05/07 11:30:00;;;;;;;14.68;8.30;;;;;;;14.70;47.10;102417.72;4996751;28;20550;-71
2022/05/07 11:32:36;;;;;;;14.25;7.50;;;;;;;14.32;48.09;102417.16;4998178;28;20132;-70
2022/05/07 11:35:01;;;;;;;11.10;6.90;;;;;;;14.55;47.60;102426.09;4997687;28;20022;-71
2022/05/07 11:37:27;;;;;;;9.85;5.18;;;;;;;14.69;47.72;102425.66;5000562;28;20647;-70
2022/05/07 11:39:53;;;;;;;9.10;5.15;;;;;;;14.64;46.87;102428.44;4997225;28;20128;-71
2022/05/07 11:42:43;;;;;;;8.63;5.50;;;;;;;14.47;47.05;102420.22;4998580;28;20719;-71
2022/05/07 11:45:26;;;;;;;9.18;5.22;;;;;;;14.21;47.21;102428.88;4996794;28;20037;-71
2022/05/07 11:47:55;;;;;;;10.25;5.80;;;;;;;13.99;48.01;102428.69;4997898;28;20735;-70
2022/05/07 11:50:25;;;;;;;8.73;5.50;;;;;;;13.86;49.15;102428.19;5000597;28;20033;-71
2022/05/07 11:52:53;;;;;;;9.48;5.63;;;;;;;14.27;48.66;102437.44;4976534;28;20046;-72
2022/05/07 11:55:27;;;;;;;10.02;5.43;;;;;;;14.22;48.77;102441.16;4993679;28;20029;-71
2022/05/07 11:57:53;;;;;;;7.45;5.18;;;;;;;14.49;46.60;102444.72;4996059;28;20050;-71
2022/05/07 12:00:21;;;;;;;8.35;5.38;;;;;;;14.25;47.79;102446.28;4998841;28;20028;-71